Time;durP1;ratioP1;P1;durP2;ratioP2;P2;SDS_P1;SDS_P2;PMS_P1;PMS_P2;Temp;Humidity;BMP_temperature;BMP_pressure;BME280_temperature;BME280_humidity;BME280_pressure;Samples;Min_cycle;Max_cycle;Signal;HPM_P1;HPM_P2
2022/01/02 00:02:34;;;;;;;;;;;21.90;51.50;;;;;;6314598;27;20058;-43
2022/01/02 00:05:37;;;;;;;;;;;21.80;51.50;;;;;;6318735;27;19928;-44
2022/01/02 00:08:41;;;;;;;;;;;21.60;51.30;;;;;;6333631;27;19954;-43
2022/01/02 00:11:43;;;;;;;;;;;21.90;51.50;;;;;;6320244;27;19923;-43
2022/01/02 00:14:46;;;;;;;;;;;21.80;51.50;;;;;;6333877;27;19963;-43
2022/01/02 00:17:49;;;;;;;;;;;21.60;51.40;;;;;;6300016;27;20020;-44
2022/01/02 00:20:51;;;;;;;;;;;21.40;51.30;;;;;;6321937;27;19998;-43
2022/01/02 00:23:59;;;;;;;;;;;21.70;51.50;;;;;;6321380;27;19923;-42
2022/01/02 00:27:00;;;;;;;;;;;21.60;51.40;;;;;;6318974;27;20554;-42
2022/01/02 00:30:03;;;;;;;;;;;21.60;51.50;;;;;;6336792;27;19968;-43
2022/01/02 00:33:05;;;;;;;;;;;21.60;51.40;;;;;;6332646;27;20296;-43
2022/01/02 00:36:06;;;;;;;;;;;22.10;51.60;;;;;;6302034;27;20453;-43
2022/01/02 00:39:08;;;;;;;;;;;21.60;51.40;;;;;;6318335;27;20871;-42
2022/01/02 00:42:10;;;;;;;;;;;21.80;51.50;;;;;;6321931;27;20632;-42
2022/01/02 00:45:17;;;;;;;;;;;22.10;51.60;;;;;;6325634;27;20271;-42
2022/01/02 00:48:22;;;;;;;;;;;21.60;51.40;;;;;;6333699;27;20066;-43
2022/01/02 00:51:31;;;;;;;;;;;21.80;51.50;;;;;;6311282;27;21083;-43
2022/01/02 00:54:33;;;;;;;;;;;21.50;51.40;;;;;;6332244;27;19959;-44
2022/01/02 00:57:35;;;;;;;;;;;21.60;51.40;;;;;;6330539;27;19923;-49
2022/01/02 01:00:37;;;;;;;;;;;21.60;51.40;;;;;;6325072;27;20973;-45
2022/01/02 01:03:40;;;;;;;;;;;21.70;51.50;;;;;;6342677;27;20622;-45
2022/01/02 01:06:45;;;;;;;;;;;21.50;51.30;;;;;;6330648;27;19923;-45
2022/01/02 01:09:47;;;;;;;;;;;21.50;51.30;;;;;;6353629;27;19930;-45
2022/01/02 01:12:49;;;;;;;;;;;21.90;51.50;;;;;;6323264;27;19986;-45
2022/01/02 01:15:51;;;;;;;;;;;21.80;51.50;;;;;;6336371;27;20020;-44
2022/01/02 01:18:53;;;;;;;;;;;21.60;51.50;;;;;;6323731;27;19923;-43
2022/01/02 01:21:55;;;;;;;;;;;21.70;51.60;;;;;;6333107;27;19962;-44
2022/01/02 01:24:57;;;;;;;;;;;21.60;51.50;;;;;;6352169;27;19934;-45
2022/01/02 01:28:00;;;;;;;;;;;21.50;51.40;;;;;;6337369;27;20462;-44
2022/01/02 01:31:02;;;;;;;;;;;21.50;51.30;;;;;;6330656;27;19927;-42
2022/01/02 01:34:04;;;;;;;;;;;21.70;51.40;;;;;;6328471;27;20588;-42
2022/01/02 01:37:06;;;;;;;;;;;21.40;51.30;;;;;;6335215;27;20669;-43
2022/01/02 01:40:11;;;;;;;;;;;21.40;51.30;;;;;;6340452;27;19923;-43
2022/01/02 01:43:14;;;;;;;;;;;22.00;51.70;;;;;;6322290;27;19927;-42
2022/01/02 01:46:17;;;;;;;;;;;21.90;51.50;;;;;;6352805;27;19934;-42
2022/01/02 01:49:20;;;;;;;;;;;21.50;51.40;;;;;;6334871;27;20470;-46
2022/01/02 01:52:21;;;;;;;;;;;21.50;51.30;;;;;;6335679;27;19927;-44
2022/01/02 01:55:23;;;;;;;;;;;21.50;51.50;;;;;;6339820;27;20122;-44
2022/01/02 01:58:24;;;;;;;;;;;21.50;51.40;;;;;;6343581;27;20047;-43
2022/01/02 02:01:26;;;;;;;;;;;21.60;51.40;;;;;;6357367;27;19928;-45
2022/01/02 02:04:29;;;;;;;;;;;21.50;51.30;;;;;;6357268;27;19927;-47
2022/01/02 02:07:39;;;;;;;;;;;21.40;51.30;;;;;;6333842;27;19973;-47
2022/01/02 02:10:45;;;;;;;;;;;21.70;51.60;;;;;;6355113;27;19923;-45
2022/01/02 02:13:48;;;;;;;;;;;21.70;51.50;;;;;;6342955;27;19929;-44
2022/01/02 02:16:51;;;;;;;;;;;21.40;51.30;;;;;;6347176;27;19923;-43
2022/01/02 02:19:56;;;;;;;;;;;21.50;51.40;;;;;;6348957;27;19923;-43
2022/01/02 02:22:59;;;;;;;;;;;21.80;51.50;;;;;;6335423;27;20355;-44
2022/01/02 02:26:00;;;;;;;;;;;21.40;51.30;;;;;;6311402;27;20752;-43
2022/01/02 02:29:03;;;;;;;;;;;21.90;51.60;;;;;;6339295;27;20327;-42
2022/01/02 02:32:04;;;;;;;;;;;21.40;51.30;;;;;;6331420;27;20047;-45
2022/01/02 02:35:06;;;;;;;;;;;21.40;51.20;;;;;;6341354;27;19923;-43
2022/01/02 02:38:09;;;;;;;;;;;21.50;51.40;;;;;;6346575;27;19973;-43
2022/01/02 02:41:12;;;;;;;;;;;21.70;51.50;;;;;;6317425;27;20161;-43
2022/01/02 02:44:22;;;;;;;;;;;21.80;51.50;;;;;;6331428;27;19923;-43
2022/01/02 02:50:44;;;;;;;;;;;21.60;51.50;;;;;;6332318;27;20507;-43
2022/01/02 02:53:47;;;;;;;;;;;21.40;51.30;;;;;;6322530;27;20305;-42
2022/01/02 02:56:58;;;;;;;;;;;21.50;51.40;;;;;;6323652;27;19934;-44
2022/01/02 03:00:03;;;;;;;;;;;21.40;51.30;;;;;;6347532;27;19924;-43
2022/01/02 03:03:06;;;;;;;;;;;21.50;51.30;;;;;;6334989;27;19954;-42
2022/01/02 03:06:09;;;;;;;;;;;21.50;51.40;;;;;;6320521;27;20656;-43
2022/01/02 03:09:11;;;;;;;;;;;21.70;51.50;;;;;;6338837;27;19927;-42
2022/01/02 03:12:15;;;;;;;;;;;21.80;51.60;;;;;;6341341;27;20886;-44
2022/01/02 03:15:21;;;;;;;;;;;21.90;51.50;;;;;;6342516;27;19927;-43
2022/01/02 03:18:23;;;;;;;;;;;21.60;51.40;;;;;;6335544;27;19973;-42
2022/01/02 03:21:25;;;;;;;;;;;21.90;51.60;;;;;;6326955;27;19984;-43
2022/01/02 03:24:27;;;;;;;;;;;21.50;51.40;;;;;;6328442;27;19927;-43
2022/01/02 03:27:28;;;;;;;;;;;21.30;51.40;;;;;;6327030;27;19958;-45
2022/01/02 03:30:30;;;;;;;;;;;21.40;51.40;;;;;;6328874;27;19927;-42
2022/01/02 03:33:31;;;;;;;;;;;21.40;51.30;;;;;;6345809;27;20368;-43
2022/01/02 03:36:34;;;;;;;;;;;21.80;51.80;;;;;;6326593;27;19976;-43
2022/01/02 03:39:36;;;;;;;;;;;21.40;51.30;;;;;;6321248;27;19928;-45
2022/01/02 03:42:38;;;;;;;;;;;21.50;51.40;;;;;;6322350;27;20233;-44
2022/01/02 03:45:40;;;;;;;;;;;21.90;51.60;;;;;;6304923;27;19994;-42
2022/01/02 03:48:41;;;;;;;;;;;21.60;51.50;;;;;;6331378;27;19926;-43
2022/01/02 03:51:46;;;;;;;;;;;21.80;51.60;;;;;;6339645;27;20456;-43
2022/01/02 03:54:48;;;;;;;;;;;21.70;51.50;;;;;;6331369;27;20296;-42
2022/01/02 03:57:50;;;;;;;;;;;21.60;52.10;;;;;;6326836;27;19950;-43
2022/01/02 04:00:51;;;;;;;;;;;21.90;51.60;;;;;;6346181;27;20031;-43
2022/01/02 04:03:53;;;;;;;;;;;21.70;51.50;;;;;;6336087;27;20686;-42
2022/01/02 04:06:55;;;;;;;;;;;21.80;52.20;;;;;;6330908;27;19927;-42
2022/01/02 04:10:01;;;;;;;;;;;21.40;51.30;;;;;;6335571;27;19927;-43
2022/01/02 04:13:03;;;;;;;;;;;21.60;51.50;;;;;;6323423;27;19955;-43
2022/01/02 04:16:06;;;;;;;;;;;21.90;51.50;;;;;;6329200;27;19946;-42
2022/01/02 04:19:09;;;;;;;;;;;21.80;51.60;;;;;;6327417;27;20242;-43
2022/01/02 04:22:12;;;;;;;;;;;21.30;51.30;;;;;;6325619;27;19933;-44
2022/01/02 04:25:13;;;;;;;;;;;21.60;51.50;;;;;;6340087;27;20066;-45
2022/01/02 04:28:15;;;;;;;;;;;21.60;51.60;;;;;;6340490;27;20354;-42
2022/01/02 04:31:17;;;;;;;;;;;21.50;51.50;;;;;;6328702;27;19934;-42
2022/01/02 04:34:18;;;;;;;;;;;21.60;51.60;;;;;;6328211;27;19965;-42
2022/01/02 04:37:21;;;;;;;;;;;21.80;51.70;;;;;;6325055;27;19923;-43
2022/01/02 04:40:24;;;;;;;;;;;21.50;51.40;;;;;;6324659;27;20282;-43
2022/01/02 04:43:25;;;;;;;;;;;21.60;51.50;;;;;;6345605;27;19927;-42
2022/01/02 04:46:26;;;;;;;;;;;21.90;51.50;;;;;;6325580;27;21250;-42
2022/01/02 04:49:28;;;;;;;;;;;21.90;51.70;;;;;;6330207;27;19923;-43
2022/01/02 04:52:32;;;;;;;;;;;21.40;51.50;;;;;;6323135;27;20832;-49
2022/01/02 04:55:34;;;;;;;;;;;21.10;51.30;;;;;;6323490;27;20021;-43
2022/01/02 04:58:35;;;;;;;;;;;21.40;51.50;;;;;;6342344;27;20019;-42
2022/01/02 05:01:37;;;;;;;;;;;22.00;51.80;;;;;;6342126;27;20005;-43
2022/01/02 05:04:39;;;;;;;;;;;21.40;51.50;;;;;;6321139;27;20241;-43
2022/01/02 05:07:41;;;;;;;;;;;21.90;51.80;;;;;;6329173;27;20064;-44
2022/01/02 05:10:43;;;;;;;;;;;21.50;51.60;;;;;;6332619;27;20347;-42
2022/01/02 05:13:45;;;;;;;;;;;21.60;51.60;;;;;;6324932;27;19924;-42
2022/01/02 05:16:47;;;;;;;;;;;21.90;51.80;;;;;;6322263;27;20464;-43
2022/01/02 05:19:49;;;;;;;;;;;21.80;51.80;;;;;;6334057;27;20164;-43
2022/01/02 05:22:52;;;;;;;;;;;21.50;51.70;;;;;;6329889;27;20158;-42
2022/01/02 05:25:54;;;;;;;;;;;21.70;51.80;;;;;;6321014;27;20018;-44
2022/01/02 05:28:55;;;;;;;;;;;21.30;51.60;;;;;;6319720;27;19924;-42
2022/01/02 05:31:57;;;;;;;;;;;21.50;51.60;;;;;;6317066;27;19932;-43
2022/01/02 05:34:58;;;;;;;;;;;21.70;51.80;;;;;;6324487;27;20455;-42
2022/01/02 05:38:01;;;;;;;;;;;21.60;51.70;;;;;;6330412;27;19927;-43
2022/01/02 05:41:03;;;;;;;;;;;21.30;51.50;;;;;;6312638;27;20069;-43
2022/01/02 05:44:05;;;;;;;;;;;21.50;51.80;;;;;;6316398;27;19931;-42
2022/01/02 05:47:06;;;;;;;;;;;21.90;51.80;;;;;;6320652;27;20137;-42
2022/01/02 05:50:14;;;;;;;;;;;21.40;51.60;;;;;;6318291;27;20765;-42
2022/01/02 05:53:16;;;;;;;;;;;21.40;51.70;;;;;;6317617;27;19923;-43
2022/01/02 05:56:20;;;;;;;;;;;21.80;51.80;;;;;;6334735;27;20582;-42
2022/01/02 05:59:21;;;;;;;;;;;21.40;51.70;;;;;;6326324;27;20484;-42
2022/01/02 06:02:23;;;;;;;;;;;21.50;51.80;;;;;;6340262;27;20145;-43
2022/01/02 06:05:24;;;;;;;;;;;21.40;51.70;;;;;;6323147;27;19930;-43
2022/01/02 06:08:27;;;;;;;;;;;21.70;51.90;;;;;;6319853;27;19970;-42
2022/01/02 06:11:29;;;;;;;;;;;21.30;51.60;;;;;;6330947;27;19923;-43
2022/01/02 06:14:30;;;;;;;;;;;21.10;51.50;;;;;;6339835;27;19934;-43
2022/01/02 06:17:32;;;;;;;;;;;21.80;51.90;;;;;;6296064;27;20005;-42
2022/01/02 06:20:34;;;;;;;;;;;21.70;51.80;;;;;;6320639;27;20371;-44
2022/01/02 06:23:36;;;;;;;;;;;21.50;51.70;;;;;;6322257;27;19928;-42
2022/01/02 06:26:38;;;;;;;;;;;21.70;51.90;;;;;;6322120;27;19924;-42
2022/01/02 06:29:39;;;;;;;;;;;21.50;51.70;;;;;;6322798;27;20789;-43
2022/01/02 06:32:41;;;;;;;;;;;21.50;51.80;;;;;;6344041;27;19934;-42
2022/01/02 06:35:42;;;;;;;;;;;21.70;51.90;;;;;;6332965;27;20609;-43
2022/01/02 06:38:45;;;;;;;;;;;21.50;51.70;;;;;;6319978;27;20340;-43
2022/01/02 06:41:46;;;;;;;;;;;21.40;51.60;;;;;;6324758;27;20008;-42
2022/01/02 06:44:48;;;;;;;;;;;21.90;51.90;;;;;;6322276;27;20436;-43
2022/01/02 06:47:50;;;;;;;;;;;22.20;52.10;;;;;;6336087;27;21987;-42
2022/01/02 06:50:51;;;;;;;;;;;21.60;51.80;;;;;;6328502;27;19932;-43
2022/01/02 06:53:53;;;;;;;;;;;21.30;51.70;;;;;;6319292;27;20372;-42
2022/01/02 06:56:55;;;;;;;;;;;21.80;51.90;;;;;;6324838;27;19934;-42
2022/01/02 06:59:56;;;;;;;;;;;21.50;51.80;;;;;;6322493;27;19926;-43
2022/01/02 07:02:57;;;;;;;;;;;21.30;51.70;;;;;;6321823;27;19927;-43
2022/01/02 07:06:00;;;;;;;;;;;21.50;51.80;;;;;;6305637;27;19926;-42
2022/01/02 07:09:03;;;;;;;;;;;21.90;52.00;;;;;;6318363;27;20276;-46
2022/01/02 07:12:05;;;;;;;;;;;21.50;51.80;;;;;;6313038;27;20759;-42
2022/01/02 07:15:07;;;;;;;;;;;22.10;52.10;;;;;;6303704;27;19935;-44
2022/01/02 07:18:08;;;;;;;;;;;21.90;52.00;;;;;;6305102;27;19985;-42
2022/01/02 07:21:10;;;;;;;;;;;21.50;51.80;;;;;;6300237;27;20478;-45
2022/01/02 07:24:12;;;;;;;;;;;21.50;51.90;;;;;;6309143;27;19927;-43
2022/01/02 07:27:13;;;;;;;;;;;21.40;51.80;;;;;;6318762;27;20124;-44
2022/01/02 07:30:14;;;;;;;;;;;21.40;51.80;;;;;;6308007;27;20037;-44
2022/01/02 07:33:22;;;;;;;;;;;21.80;52.20;;;;;;6300884;27;19929;-42
2022/01/02 07:36:23;;;;;;;;;;;21.30;51.90;;;;;;6296732;27;20879;-42
2022/01/02 07:39:25;;;;;;;;;;;21.50;52.00;;;;;;6297077;27;21000;-42
2022/01/02 07:42:26;;;;;;;;;;;21.40;51.90;;;;;;6312349;27;19935;-44
2022/01/02 07:45:34;;;;;;;;;;;21.90;52.30;;;;;;6306141;27;20071;-42
2022/01/02 07:48:35;;;;;;;;;;;21.50;51.90;;;;;;6299549;27;19928;-42
2022/01/02 07:51:37;;;;;;;;;;;21.90;52.20;;;;;;6302465;27;20004;-43
2022/01/02 07:54:39;;;;;;;;;;;21.40;52.00;;;;;;6299000;27;20449;-42
2022/01/02 07:57:40;;;;;;;;;;;21.80;52.10;;;;;;6297831;27;20318;-42
2022/01/02 08:00:42;;;;;;;;;;;21.40;51.90;;;;;;6311447;27;20552;-42
2022/01/02 08:03:43;;;;;;;;;;;21.80;52.10;;;;;;6317376;27;19975;-43
2022/01/02 08:06:44;;;;;;;;;;;21.40;51.90;;;;;;6322414;27;19929;-42
2022/01/02 08:09:46;;;;;;;;;;;21.50;52.00;;;;;;6299333;27;20140;-44
2022/01/02 08:12:47;;;;;;;;;;;21.50;52.00;;;;;;6300992;27;20019;-43
2022/01/02 08:15:49;;;;;;;;;;;21.70;52.20;;;;;;6302345;27;20373;-42
2022/01/02 08:18:51;;;;;;;;;;;21.80;52.10;;;;;;6305022;27;20080;-43
2022/01/02 08:21:52;;;;;;;;;;;21.30;51.80;;;;;;6300497;27;19927;-42
2022/01/02 08:24:58;;;;;;;;;;;21.40;52.60;;;;;;6305365;27;20454;-42
2022/01/02 08:27:59;;;;;;;;;;;21.40;52.00;;;;;;6302055;27;20296;-42
2022/01/02 08:31:01;;;;;;;;;;;21.50;52.20;;;;;;6302254;27;19926;-44
2022/01/02 08:34:02;;;;;;;;;;;21.90;52.30;;;;;;6305489;27;19934;-42
2022/01/02 08:37:03;;;;;;;;;;;21.50;52.10;;;;;;6319487;27;20208;-42
2022/01/02 08:40:06;;;;;;;;;;;21.60;52.00;;;;;;6282558;27;20410;-43
2022/01/02 08:43:08;;;;;;;;;;;21.60;52.00;;;;;;6305688;27;20679;-43
2022/01/02 08:46:10;;;;;;;;;;;21.70;52.20;;;;;;6276813;27;20053;-42
2022/01/02 08:49:12;;;;;;;;;;;21.90;52.20;;;;;;6302225;27;19963;-42
2022/01/02 08:52:13;;;;;;;;;;;21.60;52.10;;;;;;6309675;27;20015;-43
2022/01/02 08:55:15;;;;;;;;;;;21.50;52.10;;;;;;6297465;27;19933;-43
2022/01/02 08:58:16;;;;;;;;;;;21.40;51.90;;;;;;6311036;27;20066;-42
2022/01/02 09:01:18;;;;;;;;;;;21.80;52.20;;;;;;6309332;27;19933;-42
2022/01/02 09:04:19;;;;;;;;;;;21.40;52.10;;;;;;6296845;27;20589;-43
2022/01/02 09:07:20;;;;;;;;;;;21.40;52.10;;;;;;6316379;27;20177;-43
2022/01/02 09:10:23;;;;;;;;;;;22.00;52.40;;;;;;6305472;27;20543;-42
2022/01/02 09:13:26;;;;;;;;;;;21.50;52.10;;;;;;6317043;27;20810;-43
2022/01/02 09:16:28;;;;;;;;;;;21.50;52.20;;;;;;6288236;27;20455;-44
2022/01/02 09:19:29;;;;;;;;;;;21.30;51.90;;;;;;6296654;27;20478;-42
2022/01/02 09:22:31;;;;;;;;;;;21.70;52.00;;;;;;6302536;27;20277;-42
2022/01/02 09:25:33;;;;;;;;;;;21.80;52.00;;;;;;6303403;27;19927;-42
2022/01/02 09:28:34;;;;;;;;;;;22.10;52.00;;;;;;6307331;27;20034;-44
2022/01/02 09:31:36;;;;;;;;;;;21.70;51.70;;;;;;6300872;27;20309;-43
2022/01/02 09:34:41;;;;;;;;;;;21.90;51.70;;;;;;6320165;27;20121;-42
2022/01/02 09:37:43;;;;;;;;;;;21.80;51.60;;;;;;6301445;27;19928;-45
2022/01/02 09:40:44;;;;;;;;;;;21.90;51.60;;;;;;6299375;27;20058;-43
2022/01/02 09:43:47;;;;;;;;;;;21.90;51.50;;;;;;6300765;27;20369;-43
2022/01/02 09:46:51;;;;;;;;;;;22.30;51.60;;;;;;6312097;27;19923;-42
2022/01/02 09:49:53;;;;;;;;;;;22.20;51.50;;;;;;6313921;27;19934;-42
2022/01/02 09:52:54;;;;;;;;;;;22.30;51.60;;;;;;6301964;27;20018;-42
2022/01/02 09:55:56;;;;;;;;;;;21.90;51.30;;;;;;6288698;27;19999;-42
2022/01/02 09:58:57;;;;;;;;;;;21.90;51.30;;;;;;6313893;27;20038;-43
2022/01/02 10:01:59;;;;;;;;;;;21.80;51.20;;;;;;6303548;27;20618;-42
2022/01/02 10:05:02;;;;;;;;;;;22.50;51.50;;;;;;6305334;27;20454;-43
2022/01/02 10:08:18;;;;;;;;;;;22.00;51.30;;;;;;6320062;27;19927;-42
2022/01/02 10:11:24;;;;;;;;;;;22.80;51.60;;;;;;6298330;27;19973;-42
2022/01/02 10:14:25;;;;;;;;;;;21.90;51.20;;;;;;6298043;27;20014;-43
2022/01/02 10:17:27;;;;;;;;;;;22.30;51.40;;;;;;6306292;27;20191;-43
2022/01/02 10:20:30;;;;;;;;;;;22.60;51.50;;;;;;6303703;27;20041;-43
2022/01/02 10:23:31;;;;;;;;;;;22.20;51.30;;;;;;6309032;27;20346;-42
2022/01/02 10:26:33;;;;;;;;;;;22.30;51.30;;;;;;6322302;27;20470;-43
2022/01/02 10:29:48;;;;;;;;;;;22.20;51.30;;;;;;6312139;27;20446;-43
2022/01/02 10:32:49;;;;;;;;;;;22.20;51.20;;;;;;6304776;27;20821;-42
2022/01/02 10:35:59;;;;;;;;;;;22.50;51.40;;;;;;6299969;27;19924;-43
2022/01/02 10:39:03;;;;;;;;;;;22.30;51.30;;;;;;6306663;27;20489;-42
2022/01/02 10:42:15;;;;;;;;;;;22.50;51.30;;;;;;6303920;27;20044;-42
2022/01/02 10:45:28;;;;;;;;;;;22.60;51.40;;;;;;6306441;27;19934;-42
2022/01/02 10:48:32;;;;;;;;;;;22.40;51.30;;;;;;6303853;27;19931;-43
2022/01/02 10:51:33;;;;;;;;;;;22.50;51.30;;;;;;6281004;27;19966;-43
2022/01/02 10:54:35;;;;;;;;;;;22.60;51.30;;;;;;6311147;27;19926;-42
2022/01/02 10:57:38;;;;;;;;;;;22.70;51.40;;;;;;6314168;27;20512;-43
2022/01/02 11:00:40;;;;;;;;;;;22.20;51.10;;;;;;6323113;27;20384;-45
2022/01/02 11:03:42;;;;;;;;;;;22.30;51.10;;;;;;6325173;27;20326;-42
2022/01/02 11:06:43;;;;;;;;;;;22.30;51.00;;;;;;6316143;27;20263;-43
2022/01/02 11:09:46;;;;;;;;;;;22.60;51.90;;;;;;6307759;27;19953;-43
2022/01/02 11:12:49;;;;;;;;;;;22.20;51.00;;;;;;6297460;27;20885;-43
2022/01/02 11:15:50;;;;;;;;;;;22.70;51.30;;;;;;6285548;28;19932;-43
2022/01/02 11:18:51;;;;;;;;;;;22.40;51.10;;;;;;6307006;27;19927;-43
2022/01/02 11:21:54;;;;;;;;;;;22.60;51.20;;;;;;6318120;27;20560;-43
2022/01/02 11:25:00;;;;;;;;;;;22.80;51.30;;;;;;6311540;27;20289;-43
2022/01/02 11:28:04;;;;;;;;;;;22.70;51.20;;;;;;6306214;27;20043;-42
2022/01/02 11:31:07;;;;;;;;;;;22.40;51.00;;;;;;6305238;27;19931;-43
2022/01/02 11:34:20;;;;;;;;;;;22.80;51.30;;;;;;6283919;27;20178;-43
2022/01/02 11:37:23;;;;;;;;;;;22.80;51.20;;;;;;6321791;27;20243;-42
2022/01/02 11:40:39;;;;;;;;;;;22.60;51.20;;;;;;6289779;27;20318;-41
2022/01/02 11:43:55;;;;;;;;;;;22.40;50.90;;;;;;6286029;27;19923;-43
2022/01/02 11:46:58;;;;;;;;;;;22.70;51.00;;;;;;6287902;27;20325;-42
2022/01/02 11:49:59;;;;;;;;;;;22.70;51.00;;;;;;6292134;27;20050;-42
2022/01/02 11:53:17;;;;;;;;;;;22.80;51.10;;;;;;6309548;27;19924;-43
2022/01/02 11:56:31;;;;;;;;;;;22.90;51.20;;;;;;6310578;27;20712;-43
2022/01/02 11:59:47;;;;;;;;;;;23.00;51.20;;;;;;6325409;27;20865;-43
2022/01/02 12:02:49;;;;;;;;;;;22.60;51.00;;;;;;6293492;27;19930;-43
2022/01/02 12:06:06;;;;;;;;;;;22.60;51.00;;;;;;6314282;27;19930;-43
2022/01/02 12:09:27;;;;;;;;;;;22.60;51.00;;;;;;6298687;27;19931;-44
2022/01/02 12:12:29;;;;;;;;;;;22.50;51.00;;;;;;6308581;27;20481;-45
2022/01/02 12:16:01;;;;;;;;;;;22.50;50.90;;;;;;6309510;27;20066;-44
2022/01/02 12:19:04;;;;;;;;;;;23.00;51.20;;;;;;6283127;27;20345;-43
2022/01/02 12:22:10;;;;;;;;;;;23.00;51.20;;;;;;6280542;27;19978;-44
2022/01/02 12:25:14;;;;;;;;;;;22.50;50.90;;;;;;6282327;27;19934;-42
2022/01/02 12:28:15;;;;;;;;;;;23.00;51.20;;;;;;6286733;27;20305;-43
2022/01/02 12:31:17;;;;;;;;;;;22.60;51.00;;;;;;6308635;27;20033;-43
2022/01/02 12:34:22;;;;;;;;;;;22.70;51.00;;;;;;6315368;27;20090;-42
2022/01/02 12:37:27;;;;;;;;;;;22.60;51.00;;;;;;6304007;27;20070;-43
2022/01/02 12:40:35;;;;;;;;;;;22.70;51.00;;;;;;6301005;27;19959;-43
2022/01/02 12:43:37;;;;;;;;;;;22.40;50.80;;;;;;6299030;27;19924;-43
2022/01/02 12:46:40;;;;;;;;;;;22.60;51.00;;;;;;6312420;27;20457;-43
2022/01/02 12:49:43;;;;;;;;;;;23.00;51.10;;;;;;6321025;27;20086;-44
2022/01/02 12:52:50;;;;;;;;;;;22.70;50.90;;;;;;6300552;27;20074;-43
2022/01/02 12:55:57;;;;;;;;;;;22.70;50.90;;;;;;6281525;27;20330;-43
2022/01/02 12:59:12;;;;;;;;;;;23.00;51.10;;;;;;6303813;27;20814;-44
2022/01/02 13:02:14;;;;;;;;;;;22.60;50.90;;;;;;6318759;27;19927;-43
2022/01/02 13:05:16;;;;;;;;;;;22.70;50.90;;;;;;6298037;27;20711;-43
2022/01/02 13:08:22;;;;;;;;;;;22.60;50.90;;;;;;6313293;27;20026;-43
2022/01/02 13:11:33;;;;;;;;;;;22.80;50.90;;;;;;6289974;27;20410;-43
2022/01/02 13:14:37;;;;;;;;;;;22.60;50.80;;;;;;6299331;27;20041;-42
2022/01/02 13:17:39;;;;;;;;;;;23.20;51.10;;;;;;6281393;27;20050;-43
2022/01/02 13:20:43;;;;;;;;;;;22.50;50.70;;;;;;6302765;27;19966;-43
2022/01/02 13:23:44;;;;;;;;;;;22.60;50.80;;;;;;6312401;27;19927;-43
2022/01/02 13:26:46;;;;;;;;;;;22.70;50.90;;;;;;6308861;27;19935;-42
2022/01/02 13:29:56;;;;;;;;;;;23.20;51.10;;;;;;6313568;27;20159;-42
2022/01/02 13:33:01;;;;;;;;;;;23.10;51.00;;;;;;6294757;27;20034;-43
2022/01/02 13:36:08;;;;;;;;;;;22.80;50.90;;;;;;6300118;27;20463;-44
2022/01/02 13:39:09;;;;;;;;;;;22.90;50.90;;;;;;6299929;27;20519;-43
2022/01/02 13:42:11;;;;;;;;;;;22.80;50.80;;;;;;6317956;27;20317;-46
2022/01/02 13:45:15;;;;;;;;;;;22.80;50.80;;;;;;6291371;27;20042;-45
2022/01/02 13:48:32;;;;;;;;;;;22.80;50.80;;;;;;6300671;27;20000;-46
2022/01/02 13:51:34;;;;;;;;;;;23.20;51.00;;;;;;6292098;27;20775;-43
2022/01/02 13:54:35;;;;;;;;;;;22.80;50.80;;;;;;6301981;27;20049;-44
2022/01/02 13:57:37;;;;;;;;;;;22.80;50.80;;;;;;6300983;27;30048;-42
2022/01/02 14:00:43;;;;;;;;;;;23.00;50.90;;;;;;6313809;27;19973;-42
2022/01/02 14:03:44;;;;;;;;;;;22.80;50.80;;;;;;6299817;27;19994;-45
2022/01/02 14:06:46;;;;;;;;;;;22.90;50.80;;;;;;6301799;27;19927;-45
2022/01/02 14:09:50;;;;;;;;;;;23.20;50.90;;;;;;6301182;27;20071;-42
2022/01/02 14:12:56;;;;;;;;;;;22.80;50.70;;;;;;6289150;27;19949;-43
2022/01/02 14:16:03;;;;;;;;;;;22.90;50.70;;;;;;6297604;27;20428;-43
2022/01/02 14:19:04;;;;;;;;;;;22.70;50.60;;;;;;6302261;27;19963;-43
2022/01/02 14:22:07;;;;;;;;;;;22.90;50.80;;;;;;6318028;27;20431;-44
2022/01/02 14:25:09;;;;;;;;;;;22.90;50.70;;;;;;6309911;27;19927;-43
2022/01/02 14:28:15;;;;;;;;;;;23.10;50.90;;;;;;6299225;27;20380;-43
2022/01/02 14:31:16;;;;;;;;;;;23.10;50.90;;;;;;6303075;27;20508;-43
2022/01/02 14:34:18;;;;;;;;;;;22.90;50.80;;;;;;6301947;27;19928;-43
2022/01/02 14:37:20;;;;;;;;;;;22.90;50.80;;;;;;6315059;27;20430;-42
2022/01/02 14:40:22;;;;;;;;;;;23.10;50.90;;;;;;6290941;27;20686;-44
2022/01/02 14:43:23;;;;;;;;;;;22.90;50.80;;;;;;6299518;27;19958;-42
2022/01/02 14:46:24;;;;;;;;;;;23.20;51.00;;;;;;6305012;27;19924;-43
2022/01/02 14:49:26;;;;;;;;;;;22.90;50.90;;;;;;6298269;27;19932;-42
2022/01/02 14:52:28;;;;;;;;;;;23.30;51.10;;;;;;6299603;27;20010;-42
2022/01/02 14:55:29;;;;;;;;;;;23.40;51.00;;;;;;6317575;27;20465;-43
2022/01/02 14:58:30;;;;;;;;;;;23.20;51.00;;;;;;6306031;27;19989;-44
2022/01/02 15:01:37;;;;;;;;;;;22.90;50.80;;;;;;6312023;27;19945;-44
2022/01/02 15:04:39;;;;;;;;;;;23.10;50.90;;;;;;6296484;27;19923;-43
2022/01/02 15:07:41;;;;;;;;;;;23.00;50.90;;;;;;6312491;27;19931;-43
2022/01/02 15:10:42;;;;;;;;;;;23.20;51.00;;;;;;6289006;27;19974;-42
2022/01/02 15:13:44;;;;;;;;;;;22.70;50.80;;;;;;6313390;27;20569;-43
2022/01/02 15:16:48;;;;;;;;;;;23.20;51.00;;;;;;6300879;27;19953;-43
2022/01/02 15:19:50;;;;;;;;;;;22.90;50.80;;;;;;6301623;27;20463;-43
2022/01/02 15:22:52;;;;;;;;;;;23.10;50.90;;;;;;6296196;27;20295;-43
2022/01/02 15:25:54;;;;;;;;;;;22.80;50.80;;;;;;6295290;27;19928;-43
2022/01/02 15:29:13;;;;;;;;;;;22.70;50.70;;;;;;6304372;27;20453;-42
2022/01/02 15:32:15;;;;;;;;;;;23.00;50.90;;;;;;6309125;27;20175;-43
2022/01/02 15:35:17;;;;;;;;;;;23.00;50.90;;;;;;6303044;27;20513;-43
2022/01/02 15:38:19;;;;;;;;;;;22.80;50.80;;;;;;6295852;27;20280;-43
2022/01/02 15:41:20;;;;;;;;;;;23.00;50.90;;;;;;6300371;27;19992;-43
2022/01/02 15:44:24;;;;;;;;;;;22.80;50.80;;;;;;6295967;27;20687;-43
2022/01/02 15:47:25;;;;;;;;;;;22.80;50.80;;;;;;6298531;27;20023;-43
2022/01/02 15:50:27;;;;;;;;;;;22.90;50.90;;;;;;6303249;27;19974;-43
2022/01/02 15:53:31;;;;;;;;;;;23.00;50.90;;;;;;6320896;27;20065;-43
2022/01/02 15:56:32;;;;;;;;;;;22.90;50.80;;;;;;6304697;27;20417;-42
2022/01/02 15:59:34;;;;;;;;;;;22.90;50.80;;;;;;6300197;27;20025;-42
2022/01/02 16:02:35;;;;;;;;;;;23.00;50.90;;;;;;6315649;27;20041;-42
2022/01/02 16:05:37;;;;;;;;;;;22.70;50.70;;;;;;6304745;27;19930;-43
2022/01/02 16:08:39;;;;;;;;;;;22.80;50.80;;;;;;6307103;27;20501;-43
2022/01/02 16:11:40;;;;;;;;;;;22.90;50.80;;;;;;6318698;27;19925;-43
2022/01/02 16:14:41;;;;;;;;;;;22.70;50.70;;;;;;6300622;27;19923;-43
2022/01/02 16:17:45;;;;;;;;;;;23.10;51.00;;;;;;6299781;27;20380;-43
2022/01/02 16:20:48;;;;;;;;;;;22.60;50.70;;;;;;6294081;27;20211;-43
2022/01/02 16:23:52;;;;;;;;;;;23.20;50.90;;;;;;6314732;27;19927;-42
2022/01/02 16:26:54;;;;;;;;;;;22.80;50.70;;;;;;6305207;27;20395;-43
2022/01/02 16:29:55;;;;;;;;;;;22.70;50.70;;;;;;6301207;27;20220;-43
2022/01/02 16:32:57;;;;;;;;;;;22.90;50.80;;;;;;6299611;27;20146;-45
2022/01/02 16:35:58;;;;;;;;;;;22.90;50.80;;;;;;6297826;27;19977;-43
2022/01/02 16:39:00;;;;;;;;;;;22.70;50.70;;;;;;6300384;27;20042;-43
2022/01/02 16:42:01;;;;;;;;;;;22.90;50.80;;;;;;6308678;27;19927;-43
2022/01/02 16:45:04;;;;;;;;;;;22.60;50.70;;;;;;6308259;27;20038;-43
2022/01/02 16:48:05;;;;;;;;;;;23.00;50.80;;;;;;6296783;27;20173;-43
2022/01/02 16:51:07;;;;;;;;;;;23.00;50.80;;;;;;6293934;27;20711;-43
2022/01/02 16:54:08;;;;;;;;;;;23.00;50.90;;;;;;6296494;27;19923;-43
2022/01/02 16:57:10;;;;;;;;;;;22.80;50.70;;;;;;6299838;27;20433;-43
2022/01/02 17:00:12;;;;;;;;;;;23.00;50.90;;;;;;6315268;27;19973;-42
2022/01/02 17:03:14;;;;;;;;;;;22.60;50.60;;;;;;6312394;27;20049;-43
2022/01/02 17:06:15;;;;;;;;;;;22.90;50.80;;;;;;6305206;27;20434;-44
2022/01/02 17:09:17;;;;;;;;;;;22.70;50.70;;;;;;6276237;27;19999;-42
2022/01/02 17:12:18;;;;;;;;;;;22.80;50.70;;;;;;6310994;27;19927;-42
2022/01/02 17:15:22;;;;;;;;;;;22.70;50.70;;;;;;6301994;27;20337;-42
2022/01/02 17:18:26;;;;;;;;;;;23.10;50.90;;;;;;6293638;27;20016;-43
2022/01/02 17:21:28;;;;;;;;;;;22.80;50.80;;;;;;6308766;27;20382;-42
2022/01/02 17:24:30;;;;;;;;;;;22.60;50.70;;;;;;6306442;27;20066;-43
2022/01/02 17:27:32;;;;;;;;;;;22.50;50.70;;;;;;6295166;27;20501;-43
2022/01/02 17:30:34;;;;;;;;;;;22.80;50.90;;;;;;6295215;27;20318;-43
2022/01/02 17:33:36;;;;;;;;;;;22.90;51.00;;;;;;6296623;27;20598;-42
2022/01/02 17:36:38;;;;;;;;;;;22.90;51.00;;;;;;6310105;27;20080;-45
2022/01/02 17:39:39;;;;;;;;;;;22.60;51.00;;;;;;6324468;27;20049;-43
2022/01/02 17:42:41;;;;;;;;;;;22.90;51.20;;;;;;6307368;27;20066;-46
2022/01/02 17:45:42;;;;;;;;;;;22.50;51.30;;;;;;6302804;27;19930;-44
2022/01/02 17:48:43;;;;;;;;;;;22.60;51.00;;;;;;6297985;27;19935;-45